Time;durP1;ratioP1;P1;durP2;ratioP2;P2;SDS_P1;SDS_P2;PMS_P1;PMS_P2;Temp;Humidity;BMP_temperature;BMP_pressure;BME280_temperature;BME280_humidity;BME280_pressure;Samples;Min_cycle;Max_cycle;Signal;HPM_P1;HPM_P2
2023/04/14 00:01:39;;;;;;;8.85;3.83;;;13.00;82.80;;;;;;5012194;28;20434;-67
2023/04/14 00:04:05;;;;;;;9.00;3.05;;;13.00;83.00;;;;;;5011831;28;20029;-56
2023/04/14 00:06:31;;;;;;;8.90;3.13;;;12.90;83.00;;;;;;5016533;28;20026;-57
2023/04/14 00:08:57;;;;;;;8.60;3.30;;;12.90;83.10;;;;;;5032731;28;20093;-53
2023/04/14 00:11:23;;;;;;;8.05;3.20;;;12.90;83.20;;;;;;5035015;28;20147;-66
2023/04/14 00:13:48;;;;;;;8.52;2.95;;;12.90;83.20;;;;;;5035507;28;20081;-56
2023/04/14 00:16:14;;;;;;;10.00;3.40;;;12.90;83.10;;;;;;5035345;28;20033;-62
2023/04/14 00:18:40;;;;;;;11.55;3.38;;;12.90;83.30;;;;;;5017603;28;20538;-66
2023/04/14 00:21:05;;;;;;;7.38;2.90;;;12.80;83.30;;;;;;5035182;28;20025;-66
2023/04/14 00:23:31;;;;;;;11.18;3.17;;;12.80;83.40;;;;;;5034996;28;20068;-66
2023/04/14 00:25:56;;;;;;;7.18;2.92;;;12.80;83.60;;;;;;5035164;28;20061;-65
2023/04/14 00:28:22;;;;;;;7.85;2.88;;;12.80;83.60;;;;;;5035095;28;20017;-65
2023/04/14 00:30:48;;;;;;;4.85;2.60;;;12.80;83.60;;;;;;5035066;28;20513;-64
2023/04/14 00:33:13;;;;;;;7.28;2.70;;;12.70;83.70;;;;;;5034998;28;20075;-66
2023/04/14 00:35:39;;;;;;;7.97;2.97;;;12.70;83.80;;;;;;5034889;28;20037;-61
2023/04/14 00:38:04;;;;;;;8.55;2.55;;;12.60;84.00;;;;;;5034809;28;20033;-66
2023/04/14 00:40:30;;;;;;;5.68;2.25;;;12.60;84.00;;;;;;5034558;28;20229;-66
2023/04/14 00:42:55;;;;;;;7.53;2.25;;;12.60;84.00;;;;;;5034807;28;20036;-58
2023/04/14 00:45:21;;;;;;;8.95;2.00;;;12.60;84.00;;;;;;5034794;28;20021;-65
2023/04/14 00:47:49;;;;;;;6.07;1.80;;;12.60;84.00;;;;;;5034694;28;20021;-65
2023/04/14 00:50:17;;;;;;;6.55;2.20;;;12.60;84.10;;;;;;5034839;28;20026;-66
2023/04/14 00:52:45;;;;;;;5.57;1.88;;;12.60;84.20;;;;;;5034357;28;20387;-65
2023/04/14 00:55:11;;;;;;;6.70;1.92;;;12.50;84.30;;;;;;5035095;28;20408;-60
2023/04/14 00:57:38;;;;;;;5.75;2.03;;;12.50;84.30;;;;;;5034461;28;20475;-65
2023/04/14 01:00:04;;;;;;;6.03;2.40;;;12.50;85.10;;;;;;5034822;28;20026;-60
2023/04/14 01:02:30;;;;;;;6.07;2.35;;;12.50;84.40;;;;;;5034327;28;20029;-64
2023/04/14 01:04:56;;;;;;;7.57;2.55;;;12.50;84.40;;;;;;5034597;28;20136;-66
2023/04/14 01:07:24;;;;;;;7.03;2.70;;;12.50;84.50;;;;;;5034004;28;20498;-66
2023/04/14 01:09:51;;;;;;;10.27;2.78;;;12.50;84.60;;;;;;5034495;28;20024;-65
2023/04/14 01:12:28;;;;;;;7.18;3.03;;;12.40;84.60;;;;;;5034357;28;20053;-65
2023/04/14 01:15:07;;;;;;;7.82;2.95;;;12.40;84.70;;;;;;5034009;28;20095;-62
2023/04/14 01:17:55;;;;;;;10.05;3.22;;;12.40;84.90;;;;;;5034108;28;20021;-66
2023/04/14 01:20:32;;;;;;;10.30;3.03;;;12.40;85.00;;;;;;5033332;28;20032;-66
2023/04/14 01:23:10;;;;;;;14.77;3.72;;;12.40;85.00;;;;;;5033936;28;20485;-64
2023/04/14 01:25:54;;;;;;;12.63;2.92;;;12.30;85.20;;;;;;5034225;28;20061;-65
2023/04/14 01:28:31;;;;;;;9.20;2.63;;;12.30;85.40;;;;;;5033867;28;20033;-58
2023/04/14 01:31:17;;;;;;;7.88;3.25;;;12.30;85.40;;;;;;5033603;28;20155;-56
2023/04/14 01:33:44;;;;;;;8.63;2.67;;;12.30;85.50;;;;;;5033951;28;20079;-58
2023/04/14 01:36:16;;;;;;;8.45;3.13;;;12.20;85.60;;;;;;5033695;28;20029;-64
2023/04/14 01:38:44;;;;;;;7.68;2.90;;;12.20;85.70;;;;;;5033932;28;20029;-63
2023/04/14 01:41:13;;;;;;;8.13;3.05;;;12.20;85.80;;;;;;5034062;28;20033;-61
2023/04/14 01:43:43;;;;;;;8.50;2.83;;;12.20;85.90;;;;;;5016034;28;20422;-65
2023/04/14 01:46:12;;;;;;;8.05;3.38;;;12.10;85.90;;;;;;5033753;28;20024;-59
2023/04/14 01:48:40;;;;;;;6.78;2.97;;;12.10;86.00;;;;;;5033488;28;20036;-65
2023/04/14 01:51:07;;;;;;;8.23;3.03;;;12.10;86.10;;;;;;5033261;28;20100;-65
2023/04/14 01:53:37;;;;;;;9.35;3.30;;;12.10;86.20;;;;;;5033518;28;20064;-65
2023/04/14 01:56:04;;;;;;;6.43;2.78;;;12.00;86.20;;;;;;5015883;28;20414;-60
2023/04/14 01:58:31;;;;;;;7.57;2.75;;;12.00;86.30;;;;;;5033319;28;20024;-63
2023/04/14 02:00:57;;;;;;;6.40;3.10;;;12.00;86.30;;;;;;5033330;28;20453;-64
2023/04/14 02:03:24;;;;;;;7.60;3.40;;;12.00;86.40;;;;;;5033288;28;20014;-64
2023/04/14 02:05:52;;;;;;;5.22;2.60;;;12.00;86.50;;;;;;5033128;28;20057;-63
2023/04/14 02:08:21;;;;;;;6.65;3.00;;;12.00;86.60;;;;;;5033288;28;20057;-55
2023/04/14 02:10:50;;;;;;;8.13;3.20;;;11.90;86.60;;;;;;5033262;28;20087;-60
2023/04/14 02:13:18;;;;;;;7.50;2.90;;;11.90;86.70;;;;;;5033029;28;20029;-65
2023/04/14 02:15:47;;;;;;;6.22;3.08;;;12.00;86.80;;;;;;5033214;28;20029;-58
2023/04/14 02:18:14;;;;;;;6.28;2.88;;;12.00;86.80;;;;;;5032861;28;20018;-55
2023/04/14 02:20:43;;;;;;;8.70;2.97;;;11.90;86.70;;;;;;5033357;28;20104;-66
2023/04/14 02:23:10;;;;;;;10.00;3.42;;;11.90;86.90;;;;;;5033073;28;20056;-53
2023/04/14 02:25:39;;;;;;;7.18;3.67;;;11.90;86.90;;;;;;5015395;28;20022;-58
2023/04/14 02:28:10;;;;;;;6.70;3.30;;;11.90;86.90;;;;;;5032768;28;20040;-56
2023/04/14 02:30:42;;;;;;;6.18;2.90;;;11.90;87.10;;;;;;5015278;28;20017;-56
2023/04/14 02:33:11;;;;;;;8.43;3.55;;;11.80;87.30;;;;;;5031947;28;20021;-61
2023/04/14 02:36:08;;;;;;;9.02;3.55;;;11.80;87.40;;;;;;5032899;28;20394;-58
2023/04/14 02:38:38;;;;;;;6.40;3.38;;;11.70;87.40;;;;;;5032654;28;20021;-66
2023/04/14 02:41:15;;;;;;;10.82;3.35;;;11.80;87.60;;;;;;5032822;28;20033;-56
2023/04/14 02:43:46;;;;;;;8.35;3.28;;;11.80;87.60;;;;;;5032565;28;20068;-62
2023/04/14 02:46:16;;;;;;;7.15;3.28;;;11.70;87.70;;;;;;5032669;28;20079;-62
2023/04/14 02:48:45;;;;;;;7.90;2.80;;;11.70;87.60;;;;;;5032280;28;20036;-55
2023/04/14 02:51:13;;;;;;;8.20;3.22;;;11.70;87.90;;;;;;5032690;28;20029;-60
2023/04/14 02:53:39;;;;;;;8.00;3.47;;;11.60;87.90;;;;;;5032654;28;20087;-58
2023/04/14 02:56:06;;;;;;;10.02;3.25;;;11.70;88.00;;;;;;5032765;28;20025;-65
2023/04/14 02:58:32;;;;;;;7.43;3.40;;;11.60;88.00;;;;;;5032256;28;20025;-66
2023/04/14 03:00:59;;;;;;;5.63;2.95;;;11.60;88.10;;;;;;5032575;28;20044;-60
2023/04/14 03:03:27;;;;;;;8.73;3.20;;;11.60;88.20;;;;;;5032275;28;20029;-60
2023/04/14 03:05:53;;;;;;;7.05;3.30;;;11.50;88.30;;;;;;5032726;28;20032;-58
2023/04/14 03:08:19;;;;;;;6.20;3.00;;;11.50;88.30;;;;;;5032350;28;20463;-65
2023/04/14 03:10:47;;;;;;;6.85;2.88;;;11.50;88.40;;;;;;5032502;28;20444;-54
2023/04/14 03:13:14;;;;;;;7.05;2.88;;;11.50;88.40;;;;;;5032361;28;20026;-65
2023/04/14 03:15:41;;;;;;;6.32;2.80;;;11.40;88.50;;;;;;5032492;28;20022;-58
2023/04/14 03:18:07;;;;;;;5.78;3.00;;;11.50;89.40;;;;;;5032036;28;20568;-65
2023/04/14 03:20:33;;;;;;;4.63;2.42;;;11.50;88.70;;;;;;5032349;28;20029;-66
2023/04/14 03:23:03;;;;;;;7.15;2.90;;;11.50;88.50;;;;;;5032415;28;20072;-65
2023/04/14 03:25:31;;;;;;;8.00;3.28;;;11.50;88.70;;;;;;5032425;28;20458;-56
2023/04/14 03:28:00;;;;;;;5.93;3.10;;;11.40;88.70;;;;;;5032304;28;20462;-64
2023/04/14 03:30:31;;;;;;;7.03;2.90;;;11.40;88.70;;;;;;5032203;28;20049;-64
2023/04/14 03:33:06;;;;;;;8.18;3.10;;;11.40;88.70;;;;;;5032030;28;20529;-60
2023/04/14 03:35:33;;;;;;;7.55;2.78;;;11.40;89.10;;;;;;5032079;28;20454;-56
2023/04/14 03:38:01;;;;;;;6.38;2.85;;;11.40;88.70;;;;;;5032381;28;20201;-55
2023/04/14 03:40:30;;;;;;;7.55;3.00;;;11.40;88.90;;;;;;5032265;28;20064;-59
2023/04/14 03:43:01;;;;;;;7.75;2.80;;;11.30;88.90;;;;;;5032805;28;20041;-66
2023/04/14 03:45:27;;;;;;;7.20;2.45;;;11.30;89.00;;;;;;5018553;28;20061;-67
2023/04/14 03:47:59;;;;;;;5.50;2.90;;;11.30;89.20;;;;;;5036002;28;20028;-58
2023/04/14 03:50:30;;;;;;;6.30;3.08;;;11.20;89.10;;;;;;5035900;28;20030;-57
2023/04/14 03:52:58;;;;;;;7.20;2.55;;;11.20;89.10;;;;;;5036046;28;20489;-66
2023/04/14 03:55:26;;;;;;;4.78;2.00;;;11.20;89.10;;;;;;5035548;28;20474;-60
2023/04/14 03:57:55;;;;;;;5.05;2.58;;;11.20;89.20;;;;;;5035886;28;20378;-66
2023/04/14 04:00:21;;;;;;;6.32;2.53;;;11.20;89.30;;;;;;5035434;28;20064;-64
2023/04/14 04:02:48;;;;;;;8.02;2.42;;;11.20;89.30;;;;;;5035696;28;20072;-55
2023/04/14 04:05:14;;;;;;;6.05;2.80;;;11.20;89.60;;;;;;5035613;28;20025;-66
2023/04/14 04:07:40;;;;;;;7.90;3.17;;;11.10;89.40;;;;;;5035499;28;20386;-57
2023/04/14 04:10:07;;;;;;;5.57;2.95;;;11.10;89.30;;;;;;5035451;28;20026;-58
2023/04/14 04:12:34;;;;;;;5.15;2.42;;;11.10;89.40;;;;;;5035446;28;20057;-66
2023/04/14 04:15:00;;;;;;;6.07;2.42;;;11.10;89.60;;;;;;5035071;28;20042;-60
2023/04/14 04:17:30;;;;;;;6.38;2.38;;;11.00;89.60;;;;;;5035280;28;20537;-56
2023/04/14 04:19:57;;;;;;;8.23;2.20;;;11.00;89.60;;;;;;5035488;28;20028;-59
2023/04/14 04:22:25;;;;;;;6.93;3.30;;;11.00;89.60;;;;;;5035182;28;20028;-57
2023/04/14 04:24:52;;;;;;;7.05;2.83;;;11.00;89.60;;;;;;5035370;28;20064;-60
2023/04/14 04:27:18;;;;;;;5.40;2.40;;;10.90;89.60;;;;;;5035173;28;20465;-58
2023/04/14 04:29:44;;;;;;;4.88;2.70;;;10.90;89.50;;;;;;5035372;28;20025;-67
2023/04/14 04:32:10;;;;;;;7.43;2.25;;;11.00;89.50;;;;;;5035673;28;20018;-66
2023/04/14 04:34:36;;;;;;;5.95;2.67;;;11.00;89.50;;;;;;5035156;28;20119;-57
2023/04/14 04:37:02;;;;;;;5.78;2.45;;;11.00;89.50;;;;;;5034667;28;20485;-67
2023/04/14 04:39:31;;;;;;;6.90;3.10;;;10.90;89.40;;;;;;5035183;28;20025;-62
2023/04/14 04:42:04;;;;;;;6.13;2.20;;;10.90;89.40;;;;;;5035078;28;20080;-61
2023/04/14 04:44:34;;;;;;;5.47;2.90;;;10.90;89.40;;;;;;5034743;28;20057;-56
2023/04/14 04:47:00;;;;;;;6.65;2.45;;;10.90;90.00;;;;;;5035261;28;20064;-66
2023/04/14 04:49:26;;;;;;;6.88;2.72;;;10.90;89.50;;;;;;5034864;28;20033;-63
2023/04/14 04:51:52;;;;;;;5.88;3.05;;;10.90;89.40;;;;;;5035039;28;20463;-65
2023/04/14 04:54:18;;;;;;;7.55;3.00;;;10.80;89.50;;;;;;5034373;28;20025;-56
2023/04/14 04:56:44;;;;;;;7.93;3.13;;;10.80;89.40;;;;;;5034443;28;20442;-58
2023/04/14 04:59:09;;;;;;;7.40;2.75;;;10.80;89.60;;;;;;5034486;28;20487;-62
2023/04/14 05:01:35;;;;;;;8.00;2.83;;;10.80;89.60;;;;;;5034200;28;20021;-59
2023/04/14 05:04:01;;;;;;;4.57;2.50;;;10.80;89.70;;;;;;5034661;28;20087;-61
2023/04/14 05:06:30;;;;;;;7.78;2.90;;;10.80;90.00;;;;;;5032938;28;20029;-65
2023/04/14 05:08:56;;;;;;;8.20;2.80;;;10.80;89.80;;;;;;5033906;28;20032;-61
2023/04/14 05:11:23;;;;;;;8.55;2.50;;;10.80;90.00;;;;;;5034249;28;20040;-65
2023/04/14 05:13:49;;;;;;;6.57;3.25;;;10.80;90.10;;;;;;5034130;28;20033;-62
2023/04/14 05:16:15;;;;;;;7.35;3.30;;;10.80;90.00;;;;;;5034357;28;20018;-59
2023/04/14 05:18:41;;;;;;;8.40;3.35;;;10.80;90.00;;;;;;5033945;28;20041;-64
2023/04/14 05:21:09;;;;;;;7.00;2.95;;;10.80;90.00;;;;;;5034486;28;20379;-66
2023/04/14 05:23:37;;;;;;;9.32;3.55;;;10.70;90.00;;;;;;5034209;28;20020;-66
2023/04/14 05:26:04;;;;;;;7.35;3.25;;;10.70;90.10;;;;;;5016494;28;20034;-66
2023/04/14 05:28:30;;;;;;;9.73;3.72;;;10.70;90.20;;;;;;5033684;28;20079;-60
2023/04/14 05:30:55;;;;;;;8.43;3.95;;;10.70;90.20;;;;;;5034377;28;20013;-58
2023/04/14 05:33:21;;;;;;;8.30;3.75;;;10.80;90.40;;;;;;5033680;28;20124;-63
2023/04/14 05:35:49;;;;;;;8.63;3.45;;;10.80;90.30;;;;;;5034050;28;20087;-59
2023/04/14 05:38:15;;;;;;;8.50;3.92;;;10.80;90.30;;;;;;5034066;28;20108;-54
2023/04/14 05:40:41;;;;;;;9.88;3.92;;;10.80;90.40;;;;;;5033799;28;20033;-62
2023/04/14 05:43:07;;;;;;;6.75;3.17;;;10.80;90.40;;;;;;5033504;28;20465;-60
2023/04/14 05:45:32;;;;;;;7.15;3.75;;;10.80;90.30;;;;;;5033566;28;20024;-64
2023/04/14 05:47:58;;;;;;;9.70;3.70;;;10.80;90.40;;;;;;5033338;28;20044;-58
2023/04/14 05:50:24;;;;;;;9.55;3.70;;;10.80;90.40;;;;;;5033776;28;20029;-55
2023/04/14 05:52:50;;;;;;;7.85;3.13;;;10.80;90.40;;;;;;5033609;28;20399;-56
2023/04/14 05:55:16;;;;;;;8.02;4.22;;;10.80;90.50;;;;;;5033767;28;20048;-56
2023/04/14 05:57:42;;;;;;;6.78;3.85;;;10.80;90.40;;;;;;5033073;28;20026;-65
2023/04/14 06:00:09;;;;;;;7.50;3.80;;;10.80;90.50;;;;;;5033638;28;20033;-55
2023/04/14 06:02:35;;;;;;;7.55;3.42;;;10.80;90.50;;;;;;5033118;28;20013;-56
2023/04/14 06:05:00;;;;;;;11.82;4.75;;;10.80;90.50;;;;;;5033391;28;20036;-54
2023/04/14 06:07:27;;;;;;;11.10;4.05;;;10.90;90.50;;;;;;5033328;28;20076;-62
2023/04/14 06:09:52;;;;;;;10.85;4.28;;;10.90;90.50;;;;;;5032869;28;20055;-65
2023/04/14 06:12:19;;;;;;;8.13;4.40;;;10.80;90.40;;;;;;5032918;28;20382;-64
2023/04/14 06:14:44;;;;;;;12.02;4.65;;;10.80;90.40;;;;;;5033100;28;20410;-66
2023/04/14 06:17:10;;;;;;;12.27;4.72;;;10.80;90.70;;;;;;5033076;28;20487;-59
2023/04/14 06:19:36;;;;;;;12.85;4.75;;;10.90;90.50;;;;;;5032977;28;20471;-66
2023/04/14 06:22:01;;;;;;;13.93;5.80;;;10.90;90.40;;;;;;5033330;28;20047;-64
2023/04/14 06:24:27;;;;;;;12.25;5.90;;;10.90;90.30;;;;;;5033047;28;20040;-66
2023/04/14 06:26:52;;;;;;;10.65;4.72;;;10.90;90.30;;;;;;5032720;28;20521;-61
2023/04/14 06:29:18;;;;;;;11.25;5.00;;;10.90;90.30;;;;;;5033002;28;20025;-58
2023/04/14 06:31:44;;;;;;;13.80;5.05;;;10.90;90.40;;;;;;5032965;28;20017;-58
2023/04/14 06:34:09;;;;;;;9.10;4.43;;;10.90;90.40;;;;;;5032897;28;20391;-62
2023/04/14 06:36:36;;;;;;;11.38;5.07;;;10.90;90.40;;;;;;5032834;28;20148;-60
2023/04/14 06:39:02;;;;;;;11.48;4.50;;;10.90;90.50;;;;;;5032774;28;20454;-66
2023/04/14 06:41:28;;;;;;;8.48;4.10;;;10.90;90.50;;;;;;5032542;28;20025;-65
2023/04/14 06:43:53;;;;;;;10.98;4.78;;;10.90;90.60;;;;;;5032477;28;20103;-65
2023/04/14 06:46:19;;;;;;;9.32;4.60;;;10.90;90.70;;;;;;5032814;28;20391;-61
2023/04/14 06:48:44;;;;;;;16.05;5.38;;;10.90;90.80;;;;;;5031942;28;20017;-65
2023/04/14 06:51:11;;;;;;;10.52;4.80;;;10.90;90.70;;;;;;5032796;28;20030;-64
2023/04/14 06:53:37;;;;;;;10.45;4.38;;;10.90;90.90;;;;;;5032486;28;20029;-62
2023/04/14 06:56:04;;;;;;;12.40;4.65;;;10.90;90.90;;;;;;5031207;28;20493;-66
2023/04/14 06:58:30;;;;;;;9.45;4.07;;;11.00;91.00;;;;;;5032169;28;20067;-59
2023/04/14 07:01:01;;;;;;;9.32;3.95;;;11.00;90.90;;;;;;5013940;28;20034;-61
2023/04/14 07:03:29;;;;;;;8.52;3.47;;;11.00;90.90;;;;;;5012866;28;20159;-64
2023/04/14 07:06:02;;;;;;;12.23;3.85;;;11.10;90.90;;;;;;5027051;28;21127;-65
2023/04/14 07:08:31;;;;;;;8.85;3.95;;;11.00;91.10;;;;;;5014388;28;20013;-65
2023/04/14 07:11:05;;;;;;;7.82;3.55;;;11.00;91.20;;;;;;5026459;28;20545;-64
2023/04/14 07:13:32;;;;;;;12.02;4.25;;;11.10;91.30;;;;;;5012641;28;20026;-64
2023/04/14 07:15:58;;;;;;;10.45;3.35;;;11.10;91.40;;;;;;5012766;28;20394;-64
2023/04/14 07:18:24;;;;;;;9.43;3.20;;;11.10;91.50;;;;;;5013743;28;20025;-65
2023/04/14 07:20:53;;;;;;;9.48;3.60;;;11.20;91.50;;;;;;5014109;28;20037;-65
2023/04/14 07:23:20;;;;;;;6.85;3.38;;;11.20;91.60;;;;;;5019391;28;20014;-61
2023/04/14 07:25:51;;;;;;;7.07;2.92;;;11.30;91.60;;;;;;5036003;28;20067;-65
2023/04/14 07:28:17;;;;;;;6.80;3.47;;;11.30;91.90;;;;;;5032790;28;20585;-66
2023/04/14 07:30:43;;;;;;;9.65;2.80;;;11.30;91.60;;;;;;5009166;28;20044;-65
2023/04/14 07:33:09;;;;;;;6.10;3.03;;;11.40;91.50;;;;;;5011355;28;20018;-64
2023/04/14 07:35:34;;;;;;;9.93;3.60;;;11.40;91.60;;;;;;5008506;28;20414;-61
2023/04/14 07:38:00;;;;;;;11.80;3.97;;;11.50;91.40;;;;;;5008654;28;20053;-63
2023/04/14 07:40:25;;;;;;;9.27;3.53;;;11.60;91.20;;;;;;5009072;28;20475;-62
2023/04/14 07:42:51;;;;;;;9.05;3.42;;;11.60;91.20;;;;;;5009565;28;20513;-65
2023/04/14 07:45:17;;;;;;;7.50;3.25;;;11.60;91.20;;;;;;5018277;28;20029;-67
2023/04/14 07:47:42;;;;;;;9.27;3.60;;;11.70;91.10;;;;;;5008890;28;20033;-66
2023/04/14 07:50:08;;;;;;;10.98;3.15;;;11.70;91.20;;;;;;5008214;28;20068;-61
2023/04/14 07:52:34;;;;;;;9.30;3.13;;;11.80;91.30;;;;;;5014275;28;20030;-65
2023/04/14 07:54:59;;;;;;;8.15;3.38;;;11.80;91.50;;;;;;5015575;28;20034;-60
2023/04/14 07:57:25;;;;;;;8.98;3.45;;;11.90;91.50;;;;;;5015606;28;20044;-64
2023/04/14 07:59:51;;;;;;;7.82;2.63;;;11.90;91.50;;;;;;5018133;28;20049;-64
2023/04/14 08:02:16;;;;;;;9.30;3.05;;;12.00;91.40;;;;;;5017770;28;20457;-64
2023/04/14 08:04:43;;;;;;;5.63;2.85;;;12.10;91.30;;;;;;5035193;28;20079;-64
2023/04/14 08:07:08;;;;;;;7.47;3.13;;;12.10;91.20;;;;;;5033838;28;20475;-65
2023/04/14 08:09:34;;;;;;;6.85;3.28;;;12.20;91.50;;;;;;5026488;28;20030;-65
2023/04/14 08:12:00;;;;;;;6.03;2.47;;;12.30;91.50;;;;;;5029830;28;20557;-65
2023/04/14 08:14:26;;;;;;;4.97;2.22;;;12.30;91.30;;;;;;5032725;28;20041;-66
2023/04/14 08:16:52;;;;;;;6.80;2.17;;;12.30;91.10;;;;;;5033091;28;20018;-65
2023/04/14 08:19:18;;;;;;;5.68;2.33;;;12.40;91.10;;;;;;5034171;28;20437;-60
2023/04/14 08:21:43;;;;;;;6.72;2.63;;;12.40;91.00;;;;;;5033560;28;20052;-65
2023/04/14 08:24:09;;;;;;;4.78;2.17;;;12.40;91.10;;;;;;5033596;28;20364;-65
2023/04/14 08:26:35;;;;;;;5.97;2.30;;;12.50;90.80;;;;;;5035133;28;20029;-65
2023/04/14 08:29:00;;;;;;;4.40;1.58;;;12.60;90.80;;;;;;5034511;28;20427;-65
2023/04/14 08:31:26;;;;;;;5.65;1.75;;;12.60;90.70;;;;;;5034000;28;20026;-65
2023/04/14 08:33:52;;;;;;;5.72;2.13;;;12.60;90.80;;;;;;5035124;28;20057;-62
2023/04/14 08:36:18;;;;;;;4.05;1.67;;;12.70;90.50;;;;;;5016191;28;20483;-65
2023/04/14 08:38:44;;;;;;;4.72;2.60;;;12.70;90.60;;;;;;5015700;28;20039;-65
2023/04/14 08:41:13;;;;;;;4.25;1.92;;;12.70;90.60;;;;;;5034503;28;20040;-67
2023/04/14 08:43:39;;;;;;;4.47;1.90;;;12.70;90.60;;;;;;5034282;28;20156;-66
2023/04/14 08:46:08;;;;;;;4.03;1.60;;;12.80;90.60;;;;;;5034925;28;20108;-66
2023/04/14 08:48:34;;;;;;;3.15;1.30;;;12.80;90.40;;;;;;5034558;28;20021;-66
2023/04/14 08:51:04;;;;;;;4.60;1.40;;;12.90;90.40;;;;;;5033744;28;20151;-60
2023/04/14 08:53:31;;;;;;;2.70;1.23;;;12.90;90.40;;;;;;5034564;28;20025;-61
2023/04/14 08:56:01;;;;;;;6.55;1.48;;;12.90;90.30;;;;;;5034871;28;20025;-65
2023/04/14 08:58:27;;;;;;;7.05;1.52;;;13.00;90.40;;;;;;5034604;28;20024;-65
2023/04/14 09:00:54;;;;;;;4.38;1.75;;;13.00;90.20;;;;;;5034668;28;20022;-65
2023/04/14 09:03:20;;;;;;;5.68;1.70;;;13.00;90.20;;;;;;5034502;28;20022;-65
2023/04/14 09:05:47;;;;;;;3.55;1.30;;;13.00;90.20;;;;;;5034206;28;20630;-66
2023/04/14 09:08:14;;;;;;;3.78;1.30;;;13.10;90.20;;;;;;5034362;28;20489;-64
2023/04/14 09:10:41;;;;;;;4.50;1.52;;;13.10;90.00;;;;;;5020179;28;20030;-66
2023/04/14 09:13:10;;;;;;;3.42;1.20;;;13.10;89.60;;;;;;5034316;28;20034;-62
2023/04/14 09:15:37;;;;;;;5.85;1.65;;;13.20;90.00;;;;;;5033597;28;20491;-66
2023/04/14 09:18:03;;;;;;;2.65;1.20;;;13.20;89.90;;;;;;5017235;28;20026;-61
2023/04/14 09:20:29;;;;;;;4.10;1.38;;;13.20;90.00;;;;;;5015779;28;20356;-65
2023/04/14 09:22:55;;;;;;;4.93;1.00;;;13.30;89.90;;;;;;5033940;28;20483;-62
2023/04/14 09:25:21;;;;;;;3.20;0.75;;;13.30;88.10;;;;;;5033499;28;20025;-67
2023/04/14 09:27:48;;;;;;;2.85;1.10;;;13.30;88.30;;;;;;5025656;28;20483;-63
2023/04/14 09:30:16;;;;;;;2.17;1.02;;;13.30;87.60;;;;;;5021843;28;20029;-61
2023/04/14 09:32:43;;;;;;;4.82;0.90;;;13.30;88.40;;;;;;5020568;28;20068;-61
2023/04/14 09:35:12;;;;;;;2.70;0.77;;;13.30;87.40;;;;;;5017216;28;20049;-65
2023/04/14 09:37:43;;;;;;;2.30;0.70;;;13.30;87.00;;;;;;5013375;28;20463;-66
2023/04/14 09:40:10;;;;;;;6.30;1.27;;;13.40;87.20;;;;;;5013606;28;20030;-63
2023/04/14 09:42:39;;;;;;;5.22;1.20;;;13.30;87.30;;;;;;5022956;28;20034;-65
2023/04/14 09:45:07;;;;;;;3.15;0.82;;;13.40;87.60;;;;;;5033338;28;20032;-60
2023/04/14 09:47:32;;;;;;;2.97;0.90;;;13.50;88.00;;;;;;5028056;28;20520;-64
2023/04/14 09:50:02;;;;;;;6.25;1.10;;;13.50;87.30;;;;;;5006145;28;20021;-64
2023/04/14 09:52:43;;;;;;;3.20;1.13;;;13.50;87.60;;;;;;5007987;28;20544;-66
2023/04/14 09:55:14;;;;;;;2.55;1.02;;;13.50;87.60;;;;;;5007091;28;20040;-66
2023/04/14 09:57:46;;;;;;;4.00;1.35;;;13.50;86.90;;;;;;5012716;28;20022;-60
2023/04/14 10:00:14;;;;;;;4.53;0.95;;;13.50;86.50;;;;;;5013387;28;20372;-61
2023/04/14 10:02:54;;;;;;;5.32;0.98;;;13.50;86.10;;;;;;5012237;28;20014;-60
2023/04/14 10:05:30;;;;;;;2.40;1.00;;;13.60;86.40;;;;;;5007589;28;20410;-66
2023/04/14 10:08:02;;;;;;;5.25;1.20;;;13.60;85.80;;;;;;5021286;28;20053;-65
2023/04/14 10:10:28;;;;;;;3.03;1.00;;;13.60;85.40;;;;;;5006636;28;20454;-65
2023/04/14 10:12:54;;;;;;;3.63;0.80;;;13.60;86.00;;;;;;5006585;28;20040;-63
2023/04/14 10:15:20;;;;;;;4.43;1.20;;;13.70;85.40;;;;;;5015589;28;20037;-65
2023/04/14 10:17:46;;;;;;;2.50;0.70;;;13.70;85.40;;;;;;5028195;28;20032;-66
2023/04/14 10:20:12;;;;;;;3.42;1.10;;;13.70;85.80;;;;;;5032899;28;20026;-58
2023/04/14 10:22:39;;;;;;;4.20;1.10;;;13.70;85.90;;;;;;5031487;28;20021;-59
2023/04/14 10:25:05;;;;;;;2.45;0.70;;;13.80;85.60;;;;;;5032531;28;20036;-63
2023/04/14 10:27:33;;;;;;;2.90;0.88;;;13.80;85.60;;;;;;5032500;28;20021;-66
2023/04/14 10:29:59;;;;;;;2.60;0.90;;;13.80;86.10;;;;;;5031768;28;20021;-61
2023/04/14 10:32:30;;;;;;;6.78;1.13;;;13.80;85.50;;;;;;5032479;28;20108;-65
2023/04/14 10:35:02;;;;;;;3.20;0.80;;;13.90;85.90;;;;;;5013943;28;20045;-63
2023/04/14 10:37:28;;;;;;;3.00;0.70;;;13.90;87.00;;;;;;5012092;28;20029;-66
2023/04/14 10:39:57;;;;;;;4.10;0.85;;;13.90;87.40;;;;;;5017573;28;20025;-67
2023/04/14 10:42:23;;;;;;;2.75;0.80;;;13.90;87.30;;;;;;5014891;28;20021;-66
2023/04/14 10:45:21;;;;;;;4.07;0.80;;;14.00;85.90;;;;;;5032605;28;20038;-67
2023/04/14 10:47:48;;;;;;;2.78;0.70;;;14.00;85.50;;;;;;4988081;28;20506;-65
2023/04/14 10:50:16;;;;;;;6.10;0.90;;;14.00;86.50;;;;;;5032304;28;20041;-66
2023/04/14 10:52:54;;;;;;;5.30;1.02;;;14.00;86.20;;;;;;5032274;28;20075;-67
2023/04/14 10:55:21;;;;;;;2.80;0.88;;;14.10;84.30;;;;;;5014387;28;20120;-66
2023/04/14 10:57:47;;;;;;;2.88;0.95;;;14.10;86.30;;;;;;5031783;28;20096;-66
2023/04/14 11:00:19;;;;;;;3.63;1.00;;;14.10;85.00;;;;;;5032158;28;20121;-65
2023/04/14 11:02:57;;;;;;;2.70;0.67;;;14.10;83.70;;;;;;5032302;28;20060;-65
2023/04/14 11:05:23;;;;;;;2.53;0.80;;;14.20;85.90;;;;;;5012449;28;20117;-65
2023/04/14 11:07:54;;;;;;;2.80;0.82;;;14.20;86.90;;;;;;5029697;28;20018;-62
2023/04/14 11:10:20;;;;;;;3.38;1.05;;;14.20;86.30;;;;;;5032068;28;20030;-65
2023/04/14 11:12:48;;;;;;;2.75;0.90;;;14.20;84.80;;;;;;5032129;28;20035;-66
2023/04/14 11:15:14;;;;;;;3.53;0.90;;;14.30;85.40;;;;;;5031765;28;20076;-61
2023/04/14 11:17:41;;;;;;;2.45;1.23;;;14.20;85.00;;;;;;5031860;28;20463;-66
2023/04/14 11:20:17;;;;;;;4.20;1.10;;;14.30;84.10;;;;;;5031671;28;20084;-67
2023/04/14 11:22:47;;;;;;;3.00;0.95;;;14.30;83.60;;;;;;5032269;28;20087;-64
2023/04/14 11:25:14;;;;;;;2.75;0.77;;;14.30;83.80;;;;;;5032132;28;20029;-66
2023/04/14 11:27:41;;;;;;;2.58;0.73;;;14.40;82.50;;;;;;5026707;28;20378;-66
2023/04/14 11:30:18;;;;;;;4.55;0.82;;;14.40;84.10;;;;;;5031109;28;20372;-65
2023/04/14 11:32:45;;;;;;;5.93;1.27;;;14.40;84.30;;;;;;5032131;28;20025;-65
2023/04/14 11:35:11;;;;;;;1.90;0.68;;;14.50;83.60;;;;;;5032140;28;20033;-65
2023/04/14 11:37:37;;;;;;;4.32;0.88;;;14.50;83.40;;;;;;5031904;28;20026;-63
2023/04/14 11:40:04;;;;;;;2.80;0.70;;;14.50;83.20;;;;;;5031482;28;20079;-65
2023/04/14 11:42:32;;;;;;;2.78;0.70;;;14.50;83.20;;;;;;5031865;28;20068;-64
2023/04/14 11:44:58;;;;;;;2.50;0.60;;;14.50;81.70;;;;;;5031697;28;20105;-65
2023/04/14 11:47:23;;;;;;;4.80;1.05;;;14.60;82.80;;;;;;5031381;28;20097;-60
2023/04/14 11:49:49;;;;;;;2.30;0.50;;;14.60;83.10;;;;;;5031426;28;20025;-65
2023/04/14 11:52:15;;;;;;;3.00;0.90;;;14.60;84.40;;;;;;5032029;28;20026;-64
2023/04/14 11:54:41;;;;;;;4.38;0.93;;;14.60;82.60;;;;;;5031307;28;20041;-62
2023/04/14 11:57:16;;;;;;;3.83;0.90;;;14.60;82.00;;;;;;5031627;28;20379;-65
2023/04/14 11:59:43;;;;;;;2.22;0.60;;;14.70;83.40;;;;;;5031149;28;20030;-66
2023/04/14 12:02:20;;;;;;;3.53;0.63;;;14.70;84.90;;;;;;5031288;28;20032;-66
2023/04/14 12:04:47;;;;;;;3.30;0.82;;;14.80;83.90;;;;;;5033237;28;20033;-65
2023/04/14 12:07:15;;;;;;;2.28;0.55;;;14.70;82.90;;;;;;5035041;28;20040;-64
2023/04/14 12:09:47;;;;;;;1.77;0.52;;;14.80;84.90;;;;;;5035348;28;20021;-66
2023/04/14 12:12:15;;;;;;;3.00;0.88;;;14.80;83.70;;;;;;5035447;28;20029;-65
2023/04/14 12:14:43;;;;;;;3.20;0.60;;;14.80;85.10;;;;;;5034676;28;20135;-61
2023/04/14 12:17:09;;;;;;;2.20;0.80;;;14.90;85.50;;;;;;5035248;28;20877;-65
2023/04/14 12:19:36;;;;;;;3.70;0.73;;;14.90;85.60;;;;;;5035267;28;20025;-63
2023/04/14 12:22:05;;;;;;;2.08;0.50;;;14.90;85.30;;;;;;5034682;28;20029;-65
2023/04/14 12:24:41;;;;;;;1.73;0.55;;;14.90;84.70;;;;;;5034631;28;20026;-66
2023/04/14 12:27:08;;;;;;;5.03;1.05;;;15.00;85.20;;;;;;5034920;28;20475;-59
2023/04/14 12:29:37;;;;;;;2.00;0.50;;;15.00;85.40;;;;;;5035007;28;20024;-65
2023/04/14 12:32:13;;;;;;;1.67;0.50;;;15.00;85.90;;;;;;5033937;28;20038;-65
2023/04/14 12:34:39;;;;;;;2.10;0.50;;;15.10;85.90;;;;;;5034961;28;20625;-66
2023/04/14 12:37:10;;;;;;;3.15;0.82;;;15.10;85.70;;;;;;5034947;28;20026;-62
2023/04/14 12:39:57;;;;;;;2.83;0.60;;;15.10;83.40;;;;;;5034724;28;20084;-58
2023/04/14 12:42:23;;;;;;;2.58;0.47;;;15.20;83.40;;;;;;5034003;28;20080;-64
2023/04/14 12:45:01;;;;;;;3.88;0.80;;;15.10;81.80;;;;;;5035027;28;20037;-63
2023/04/14 12:47:32;;;;;;;2.65;0.60;;;15.20;81.20;;;;;;5034730;28;20025;-59
2023/04/14 12:50:00;;;;;;;1.95;0.32;;;15.20;81.00;;;;;;5034443;28;20022;-63